createdAt,value
2023-12-21T00:00:43.134Z,40.56
2023-12-21T00:01:46.125Z,37.13
2023-12-21T00:02:49.073Z,38.06
2023-12-21T00:03:51.988Z,33.56
2023-12-21T00:04:55.062Z,39.31
2023-12-21T00:05:58.041Z,38.19
2023-12-21T00:07:01.186Z,40.20
2023-12-21T00:08:04.292Z,30.19
2023-12-21T00:09:07.232Z,34.40
2023-12-21T00:10:11.012Z,35.19
2023-12-21T00:11:13.929Z,41.88
2023-12-21T00:12:16.802Z,26.06
2023-12-21T00:13:19.767Z,33.38
2023-12-21T00:19:23.346Z,37.63
2023-12-21T00:20:27.846Z,33.94
2023-12-21T00:21:30.909Z,31.06
2023-12-21T00:22:36.459Z,37.38
2023-12-21T00:23:39.456Z,38.25
2023-12-21T00:24:42.344Z,33.31
2023-12-21T00:25:45.293Z,36.88
2023-12-21T00:26:48.503Z,29.50
2023-12-21T00:27:51.351Z,38.00
2023-12-21T00:28:54.390Z,37.88
2023-12-21T00:29:57.335Z,34.81
2023-12-21T00:31:02.045Z,36.69
2023-12-21T00:32:05.320Z,35.94
2023-12-21T00:33:08.332Z,36.69
2023-12-21T00:34:11.481Z,30.12
2023-12-21T00:35:14.496Z,34.50
2023-12-21T00:36:18.449Z,37.67
2023-12-21T00:37:21.490Z,32.50
2023-12-21T00:38:24.496Z,35.19
2023-12-21T00:39:29.691Z,38.27
2023-12-21T00:40:33.467Z,33.44
2023-12-21T00:41:36.421Z,34.06
2023-12-21T00:42:39.296Z,34.13
2023-12-21T00:43:42.251Z,28.75
2023-12-21T00:44:45.219Z,39.44
2023-12-21T00:45:48.117Z,35.07
2023-12-21T00:46:52.835Z,33.31
2023-12-21T00:47:55.754Z,39.13
2023-12-21T00:48:58.802Z,29.94
2023-12-21T00:50:01.850Z,38.80
2023-12-21T00:51:04.931Z,34.50
2023-12-21T00:52:07.852Z,31.19
2023-12-21T00:53:10.874Z,33.94
2023-12-21T00:54:13.831Z,32.44
2023-12-21T00:55:16.739Z,32.50
2023-12-21T00:56:21.304Z,26.80
2023-12-21T00:57:24.183Z,33.81
2023-12-21T00:58:27.117Z,31.81
2023-12-21T00:59:30.039Z,32.50
2023-12-21T01:00:33.787Z,29.56
2023-12-21T01:01:36.752Z,30.50
2023-12-21T01:02:39.797Z,31.37
2023-12-21T01:03:42.721Z,27.81
2023-12-21T01:04:45.704Z,30.94
2023-12-21T01:05:48.744Z,29.44
2023-12-21T01:06:51.879Z,27.81
2023-12-21T01:07:55.024Z,29.00
2023-12-21T01:08:57.937Z,28.06
2023-12-21T01:10:00.931Z,31.94
2023-12-21T01:11:03.890Z,31.19
2023-12-21T01:12:07.518Z,26.81
2023-12-21T01:13:10.449Z,29.81
2023-12-21T01:14:13.359Z,31.73
2023-12-21T01:15:16.324Z,22.56
2023-12-21T01:16:19.825Z,28.25
2023-12-21T01:17:22.739Z,27.31
2023-12-21T01:18:25.653Z,26.19
2023-12-21T01:19:28.900Z,26.33
2023-12-21T01:20:32.443Z,25.88
2023-12-21T01:21:35.443Z,27.93
2023-12-21T01:22:38.459Z,26.87
2023-12-21T01:23:41.579Z,28.38
2023-12-21T01:24:44.616Z,29.25
2023-12-21T01:25:47.645Z,29.93
2023-12-21T01:26:51.027Z,29.40
2023-12-21T01:27:54.010Z,29.56
2023-12-21T01:28:56.996Z,23.50
2023-12-21T01:30:00.002Z,29.19
2023-12-21T01:31:03.121Z,24.19
2023-12-21T01:32:06.573Z,29.40
2023-12-21T01:33:09.775Z,23.81
2023-12-21T01:34:13.702Z,26.56
2023-12-21T01:35:16.883Z,28.81
2023-12-21T01:36:20.605Z,24.37
2023-12-21T01:37:23.634Z,28.75
2023-12-21T01:38:26.639Z,31.69
2023-12-21T01:39:29.579Z,28.38
2023-12-21T01:40:33.967Z,28.31
2023-12-21T01:41:36.985Z,27.75
2023-12-21T01:42:40.094Z,26.62
2023-12-21T01:43:44.175Z,25.94
2023-12-21T01:44:47.170Z,27.56
2023-12-21T01:45:50.040Z,27.56
2023-12-21T01:46:53.645Z,28.00
2023-12-21T01:47:56.994Z,26.87
2023-12-21T01:49:00.123Z,23.31
2023-12-21T01:50:03.379Z,29.00
2023-12-21T01:51:06.267Z,27.81
2023-12-21T01:52:10.002Z,25.69
2023-12-21T01:53:13.325Z,22.94
2023-12-21T01:54:16.191Z,25.12
2023-12-21T01:55:19.157Z,25.12
2023-12-21T01:56:24.091Z,22.19
2023-12-21T01:57:27.072Z,22.31
2023-12-21T01:58:31.623Z,19.50
2023-12-21T01:59:34.778Z,27.62
2023-12-21T02:00:39.420Z,20.81
2023-12-21T02:01:42.655Z,20.44
2023-12-21T02:02:46.308Z,21.56
2023-12-21T02:03:49.821Z,19.06
2023-12-21T02:04:52.753Z,18.62
2023-12-21T02:05:55.770Z,17.00
2023-12-21T02:06:58.948Z,17.81
2023-12-21T02:08:02.100Z,20.50
2023-12-21T02:09:04.976Z,20.50
2023-12-21T02:10:08.832Z,21.56
2023-12-21T02:11:11.991Z,19.94
2023-12-21T02:12:14.946Z,21.44
2023-12-21T02:13:17.856Z,21.19
2023-12-21T02:14:20.769Z,22.31
2023-12-21T02:15:24.107Z,20.81
2023-12-21T02:16:29.734Z,22.31
2023-12-21T02:17:33.616Z,22.13
2023-12-21T02:18:37.653Z,16.94
2023-12-21T02:19:40.960Z,22.56
2023-12-21T02:20:44.350Z,18.62
2023-12-21T02:21:47.442Z,19.37
2023-12-21T02:22:51.137Z,20.75
2023-12-21T02:23:55.417Z,23.38
2023-12-21T02:24:58.384Z,20.88
2023-12-21T02:26:01.457Z,19.75
2023-12-21T02:27:04.672Z,16.94
2023-12-21T02:28:07.623Z,20.12
2023-12-21T02:29:10.934Z,22.13
2023-12-21T02:30:15.552Z,19.37
2023-12-21T02:31:18.687Z,16.50
2023-12-21T02:32:21.639Z,16.50
2023-12-21T02:33:24.651Z,17.87
2023-12-21T02:34:27.632Z,18.94
2023-12-21T02:35:30.633Z,19.12
2023-12-21T02:36:34.252Z,15.75
2023-12-21T02:37:37.260Z,14.63
2023-12-21T02:38:40.142Z,13.06
2023-12-21T02:39:43.081Z,15.88
2023-12-21T02:40:46.303Z,9.19
2023-12-21T02:41:49.184Z,13.25
2023-12-21T02:42:52.040Z,8.88
2023-12-21T02:43:54.898Z,11.12
2023-12-21T02:44:57.755Z,9.31
2023-12-21T02:46:00.729Z,10.31
2023-12-21T02:47:03.619Z,9.25
2023-12-21T02:48:06.743Z,10.25
2023-12-21T02:49:09.707Z,11.38
2023-12-21T02:50:14.526Z,10.81
2023-12-21T02:51:17.425Z,10.63
2023-12-21T02:52:20.369Z,10.50
2023-12-21T02:53:23.239Z,6.87
2023-12-21T02:54:26.099Z,10.44
2023-12-21T02:55:28.999Z,9.25
2023-12-21T02:56:33.385Z,9.94
2023-12-21T02:57:36.241Z,10.31
2023-12-21T02:58:39.225Z,11.00
2023-12-21T02:59:45.144Z,9.94
2023-12-21T03:00:49.015Z,10.19
2023-12-21T03:01:51.969Z,12.69
2023-12-21T03:02:54.912Z,10.50
2023-12-21T03:03:58.093Z,13.06
2023-12-21T03:05:01.034Z,10.25
2023-12-21T03:06:04.217Z,11.94
2023-12-21T03:07:07.158Z,10.75
2023-12-21T03:08:10.089Z,10.13
2023-12-21T03:09:12.976Z,14.38
2023-12-21T03:10:16.363Z,10.19
2023-12-21T03:11:19.338Z,13.19
2023-12-21T03:12:22.225Z,12.88
2023-12-21T03:13:25.092Z,14.63
2023-12-21T03:14:28.079Z,13.06
2023-12-21T03:15:30.974Z,13.94
2023-12-21T03:16:34.339Z,11.50
2023-12-21T03:17:37.326Z,14.31
2023-12-21T03:18:40.300Z,13.50
2023-12-21T03:19:43.366Z,13.06
2023-12-21T03:20:47.233Z,14.19
2023-12-21T03:21:50.083Z,12.31
2023-12-21T03:22:53.229Z,14.87
2023-12-21T03:23:56.163Z,15.88
2023-12-21T03:24:59.085Z,16.06
2023-12-21T03:26:02.045Z,16.25
2023-12-21T03:27:05.023Z,11.69
2023-12-21T03:28:08.102Z,13.19
2023-12-21T03:29:11.032Z,13.38
2023-12-21T03:30:14.299Z,15.63
2023-12-21T03:31:17.692Z,14.25
2023-12-21T03:32:20.690Z,14.00
2023-12-21T03:33:23.594Z,14.06
2023-12-21T03:34:26.592Z,18.87
2023-12-21T03:35:29.492Z,16.00
2023-12-21T03:36:32.549Z,16.73
2023-12-21T03:37:35.710Z,13.94
2023-12-21T03:38:40.146Z,17.50
2023-12-21T03:39:42.988Z,12.19
2023-12-21T03:40:46.211Z,14.81
2023-12-21T03:41:49.225Z,15.63
2023-12-21T03:42:52.110Z,15.13
2023-12-21T03:43:54.973Z,16.81
2023-12-21T03:44:57.871Z,19.50
2023-12-21T03:46:01.014Z,13.56
2023-12-21T03:47:03.935Z,17.94
2023-12-21T03:48:08.517Z,16.44
2023-12-21T03:49:11.539Z,17.00
2023-12-21T03:50:15.211Z,14.25
2023-12-21T03:51:18.178Z,13.81
2023-12-21T03:52:21.162Z,15.50
2023-12-21T03:53:24.055Z,17.31
2023-12-21T03:54:26.873Z,13.94
2023-12-21T03:55:29.831Z,12.94
2023-12-21T03:56:34.041Z,13.19
2023-12-21T03:57:36.981Z,13.88
2023-12-21T03:58:40.014Z,12.25
2023-12-21T03:59:42.901Z,12.69
2023-12-21T04:00:46.338Z,12.69
2023-12-21T04:01:49.362Z,11.50
2023-12-21T04:02:52.340Z,15.69
2023-12-21T04:03:55.320Z,11.31
2023-12-21T04:04:58.209Z,11.88
2023-12-21T04:06:01.222Z,14.19
2023-12-21T04:07:04.105Z,10.69
2023-12-21T04:08:08.781Z,13.44
2023-12-21T04:09:11.667Z,10.75
2023-12-21T04:10:16.313Z,13.13
2023-12-21T04:11:20.429Z,12.13
2023-12-21T04:12:27.723Z,11.50
2023-12-21T04:13:30.677Z,12.88
2023-12-21T04:14:33.627Z,12.19
2023-12-21T04:15:36.519Z,7.62
2023-12-21T04:16:41.116Z,13.38
2023-12-21T04:17:44.124Z,13.25
2023-12-21T04:18:47.076Z,12.75
2023-12-21T04:19:50.222Z,14.56
2023-12-21T04:20:53.675Z,9.50
2023-12-21T04:21:56.709Z,11.88
2023-12-21T04:22:59.641Z,10.56
2023-12-21T04:24:02.570Z,14.44
2023-12-21T04:25:05.690Z,15.13
2023-12-21T04:26:09.695Z,17.25
2023-12-21T04:27:12.591Z,17.53
2023-12-21T04:28:15.508Z,14.50
2023-12-21T04:29:18.378Z,11.69
2023-12-21T04:30:22.879Z,13.50
2023-12-21T04:31:25.946Z,14.50
2023-12-21T04:32:29.045Z,16.50
2023-12-21T04:33:32.121Z,14.50
2023-12-21T04:34:35.144Z,9.88
2023-12-21T04:35:38.102Z,11.25
2023-12-21T04:36:41.342Z,13.06
2023-12-21T04:37:44.187Z,14.38
2023-12-21T04:38:47.064Z,14.69
2023-12-21T04:39:49.943Z,12.37
2023-12-21T04:40:54.694Z,14.19
2023-12-21T04:41:57.580Z,6.69
2023-12-21T04:43:00.484Z,15.13
2023-12-21T04:44:03.340Z,17.69
2023-12-21T04:45:06.439Z,10.00
2023-12-21T04:46:10.435Z,12.69
2023-12-21T04:47:22.642Z,12.63
2023-12-21T04:48:17.853Z,14.81
2023-12-21T04:49:20.850Z,13.56
2023-12-21T04:50:24.875Z,12.00
2023-12-21T04:51:27.802Z,12.44
2023-12-21T04:52:30.675Z,9.88
2023-12-21T04:53:33.698Z,11.25
2023-12-21T04:54:36.612Z,16.87
2023-12-21T04:55:39.678Z,11.44
2023-12-21T04:56:43.085Z,13.62
2023-12-21T04:57:45.981Z,10.44
2023-12-21T04:58:48.956Z,14.13
2023-12-21T04:59:51.896Z,12.56
2023-12-21T05:00:54.962Z,13.81
2023-12-21T05:01:57.944Z,8.94
2023-12-21T05:03:00.962Z,12.94
2023-12-21T05:04:04.431Z,12.25
2023-12-21T05:05:07.372Z,12.88
2023-12-21T05:06:11.269Z,12.69
2023-12-21T05:07:14.342Z,15.44
2023-12-21T05:08:17.262Z,14.13
2023-12-21T05:09:20.148Z,14.50
2023-12-21T05:10:23.815Z,14.50
2023-12-21T05:11:26.720Z,6.62
2023-12-21T05:12:29.600Z,14.94
2023-12-21T05:13:32.709Z,13.69
2023-12-21T05:14:35.684Z,15.88
2023-12-21T05:15:39.862Z,14.56
2023-12-21T05:16:43.066Z,15.94
2023-12-21T05:17:47.967Z,14.56
2023-12-21T05:18:50.927Z,18.50
2023-12-21T05:19:54.016Z,13.31
2023-12-21T05:20:59.239Z,13.00
2023-12-21T05:22:18.301Z,13.31
2023-12-21T05:23:58.080Z,39.81
2023-12-21T05:24:52.980Z,15.80
2023-12-21T05:27:57.223Z,17.19
2023-12-21T05:30:21.106Z,16.37
2023-12-21T05:31:35.707Z,16.44
2023-12-21T05:34:43.557Z,17.75
2023-12-21T05:35:26.555Z,14.50
2023-12-21T05:36:50.597Z,19.44
2023-12-21T05:37:22.864Z,13.50
2023-12-21T05:54:01.009Z,11.50
2023-12-21T05:55:04.221Z,20.25
2023-12-21T05:56:07.676Z,17.25
2023-12-21T05:57:10.706Z,20.06
2023-12-21T05:58:13.584Z,22.25
2023-12-21T05:59:16.446Z,14.44
2023-12-21T06:00:21.190Z,19.31
2023-12-21T06:01:24.121Z,12.25
2023-12-21T06:02:27.057Z,20.81
2023-12-21T06:03:29.996Z,13.88
2023-12-21T06:04:33.098Z,17.50
2023-12-21T06:05:36.066Z,14.00
2023-12-21T06:06:39.274Z,13.50
2023-12-21T06:07:42.564Z,18.07
2023-12-21T06:08:45.671Z,14.69
2023-12-21T06:09:48.663Z,15.75
2023-12-21T06:10:53.240Z,6.50
2023-12-21T06:11:58.671Z,16.44
2023-12-21T06:13:04.725Z,17.31
2023-12-21T06:14:07.934Z,14.25
2023-12-21T06:15:10.913Z,17.12
2023-12-21T06:16:15.565Z,15.06
2023-12-21T06:17:18.450Z,17.75
2023-12-21T06:18:21.484Z,18.56
2023-12-21T06:19:24.482Z,17.19
2023-12-21T06:20:28.143Z,17.19
2023-12-21T06:21:31.080Z,15.13
2023-12-21T06:22:34.054Z,16.31
2023-12-21T06:23:50.029Z,21.93
2023-12-21T06:24:56.767Z,13.62
2023-12-21T06:26:01.884Z,16.69
2023-12-21T06:28:33.623Z,17.44
2023-12-21T06:29:36.750Z,19.25
2023-12-21T06:30:40.073Z,23.47
2023-12-21T06:31:43.269Z,22.50
2023-12-21T06:32:49.701Z,18.62
2023-12-21T06:33:54.773Z,17.87
2023-12-21T06:34:58.085Z,16.75
2023-12-21T06:36:05.943Z,19.62
2023-12-21T06:37:09.117Z,12.94
2023-12-21T06:38:12.302Z,17.00
2023-12-21T06:39:15.413Z,17.50
2023-12-21T06:40:20.611Z,13.50
2023-12-21T06:41:24.076Z,19.75
2023-12-21T06:42:30.882Z,16.00
2023-12-21T06:43:38.877Z,14.50
2023-12-21T06:44:46.214Z,27.31
2023-12-21T06:46:01.891Z,14.19
2023-12-21T06:47:02.657Z,18.75
2023-12-21T06:48:06.017Z,22.31
2023-12-21T06:49:12.512Z,18.31
2023-12-21T06:50:20.343Z,17.37
2023-12-21T06:51:23.561Z,23.75
2023-12-21T06:52:27.325Z,44.69
2023-12-21T06:53:30.757Z,32.44
2023-12-21T06:54:34.590Z,20.37
2023-12-21T06:55:39.847Z,20.00
2023-12-21T06:56:43.942Z,20.44
2023-12-21T06:57:47.107Z,25.37
2023-12-21T06:58:50.574Z,22.62
2023-12-21T06:59:59.294Z,23.12
2023-12-21T07:01:02.409Z,25.12
2023-12-21T07:02:05.660Z,27.87
2023-12-21T07:03:08.860Z,25.62
2023-12-21T07:04:12.223Z,23.33
2023-12-21T07:05:15.451Z,20.56
2023-12-21T07:06:20.213Z,19.69
2023-12-21T07:07:24.961Z,20.37
2023-12-21T07:08:31.368Z,20.25
2023-12-21T07:09:34.609Z,20.06
2023-12-21T07:10:39.330Z,17.00
2023-12-21T07:11:46.557Z,18.19
2023-12-21T07:12:56.042Z,20.73
2023-12-21T07:14:02.773Z,19.06
2023-12-21T07:15:06.323Z,18.81
2023-12-21T07:16:12.246Z,19.25
2023-12-21T07:17:15.309Z,16.94
2023-12-21T07:18:18.318Z,16.69
2023-12-21T07:19:21.309Z,20.00
2023-12-21T07:20:25.945Z,18.25
2023-12-21T07:21:29.409Z,16.56
2023-12-21T07:22:32.368Z,21.75
2023-12-21T07:23:35.283Z,21.75
2023-12-21T07:24:38.163Z,18.19
2023-12-21T07:25:41.071Z,15.69
2023-12-21T07:26:44.687Z,17.50
2023-12-21T07:27:47.754Z,20.47
2023-12-21T07:28:51.605Z,15.31
2023-12-21T07:29:54.522Z,19.69
2023-12-21T07:30:57.693Z,19.94
2023-12-21T07:32:00.622Z,16.25
2023-12-21T07:33:06.095Z,21.47
2023-12-21T07:34:08.318Z,22.25
2023-12-21T07:35:11.353Z,23.94
2023-12-21T07:36:17.407Z,23.00
2023-12-21T07:37:20.455Z,14.94
2023-12-21T07:38:23.476Z,23.12
2023-12-21T07:39:26.444Z,24.94
2023-12-21T07:40:30.285Z,25.00
2023-12-21T07:41:33.413Z,28.56
2023-12-21T07:42:36.418Z,27.25
2023-12-21T07:43:39.435Z,30.00
2023-12-21T07:44:44.845Z,29.00
2023-12-21T07:45:47.842Z,21.81
2023-12-21T07:46:52.669Z,20.88
2023-12-21T07:47:55.847Z,23.00
2023-12-21T07:48:58.984Z,23.56
2023-12-21T07:50:02.039Z,32.25
2023-12-21T07:51:07.923Z,25.37
2023-12-21T07:52:10.910Z,39.69
2023-12-21T07:53:14.014Z,28.06
2023-12-21T07:54:16.971Z,29.63
2023-12-21T07:55:20.016Z,28.27
2023-12-21T07:56:24.306Z,25.69
2023-12-21T07:57:27.298Z,31.69
2023-12-21T07:58:30.313Z,26.44
2023-12-21T07:59:33.272Z,31.25
2023-12-21T08:02:08.943Z,29.63
2023-12-21T08:03:11.889Z,34.00
2023-12-21T08:04:14.961Z,47.33
2023-12-21T08:05:18.151Z,35.50
2023-12-21T08:06:22.971Z,28.87
2023-12-21T08:07:26.186Z,26.69
2023-12-21T08:08:29.198Z,30.00
2023-12-21T08:09:32.171Z,25.12
2023-12-21T08:10:35.989Z,24.87
2023-12-21T08:11:40.456Z,22.62
2023-12-21T08:12:43.469Z,33.19
2023-12-21T08:13:49.373Z,33.63
2023-12-21T08:14:52.388Z,32.00
2023-12-21T08:15:57.886Z,30.00
2023-12-21T08:17:00.964Z,36.56
2023-12-21T08:18:04.346Z,33.38
2023-12-21T08:19:07.390Z,31.50
2023-12-21T08:20:11.713Z,36.27
2023-12-21T08:21:14.616Z,26.69
2023-12-21T08:22:17.844Z,28.06
2023-12-21T08:23:20.754Z,27.19
2023-12-21T08:24:23.715Z,26.00
2023-12-21T08:25:26.953Z,28.06
2023-12-21T08:26:31.617Z,30.12
2023-12-21T08:27:34.603Z,23.56
2023-12-21T08:28:37.723Z,27.37
2023-12-21T08:29:40.677Z,28.50
2023-12-21T08:30:44.874Z,31.31
2023-12-21T08:31:47.906Z,32.50
2023-12-21T08:32:51.134Z,25.62
2023-12-21T08:33:54.624Z,27.94
2023-12-21T08:34:57.707Z,24.37
2023-12-21T08:36:00.753Z,30.44
2023-12-21T08:37:03.768Z,28.50
2023-12-21T08:38:17.991Z,26.31
2023-12-21T08:39:20.940Z,30.37
2023-12-21T08:40:24.940Z,36.07
2023-12-21T08:41:28.013Z,28.50
2023-12-21T08:42:30.880Z,31.56
2023-12-21T08:43:34.148Z,28.94
2023-12-21T08:44:40.383Z,25.75
2023-12-21T08:45:46.038Z,34.44
2023-12-21T08:46:50.666Z,29.87
2023-12-21T08:47:56.432Z,36.25
2023-12-21T08:48:59.459Z,35.20
2023-12-21T08:50:02.566Z,32.19
2023-12-21T08:51:05.849Z,31.12
2023-12-21T08:52:08.755Z,31.12
2023-12-21T08:53:11.779Z,31.37
2023-12-21T08:54:16.187Z,31.75
2023-12-21T08:55:19.056Z,30.00
2023-12-21T08:56:24.991Z,36.00
2023-12-21T08:57:27.830Z,33.93
2023-12-21T08:58:30.835Z,30.25
2023-12-21T08:59:33.771Z,41.69
2023-12-21T09:00:39.654Z,34.44
2023-12-21T09:01:42.727Z,27.44
2023-12-21T09:02:49.343Z,33.50
2023-12-21T09:03:53.202Z,31.12
2023-12-21T09:04:56.214Z,26.00
2023-12-21T09:05:59.251Z,24.63
2023-12-21T09:07:02.362Z,31.81
2023-12-21T09:08:05.282Z,30.94
2023-12-21T09:09:15.974Z,28.69
2023-12-21T09:10:21.950Z,34.50
2023-12-21T09:11:34.249Z,22.81
2023-12-21T09:18:14.480Z,29.94
2023-12-21T09:18:40.419Z,32.27
2023-12-21T09:19:43.601Z,32.73
2023-12-21T09:20:46.639Z,28.87
2023-12-21T09:21:49.558Z,30.88
2023-12-21T09:22:52.842Z,35.44
2023-12-21T09:23:55.968Z,32.13
2023-12-21T09:24:58.995Z,28.19
2023-12-21T09:26:01.879Z,30.69
2023-12-21T09:27:04.967Z,31.75
2023-12-21T09:28:07.881Z,33.38
2023-12-21T09:29:10.792Z,35.19
2023-12-21T09:30:14.922Z,30.31
2023-12-21T09:31:18.001Z,32.13
2023-12-21T09:32:20.983Z,31.94
2023-12-21T09:33:23.894Z,35.88
2023-12-21T09:34:26.798Z,35.69
2023-12-21T09:35:29.967Z,39.13
2023-12-21T09:36:33.320Z,31.37
2023-12-21T09:37:36.200Z,32.13
2023-12-21T09:38:39.078Z,33.80
2023-12-21T09:39:41.968Z,35.81
2023-12-21T09:40:46.387Z,31.94
2023-12-21T09:41:56.811Z,33.25
2023-12-21T09:43:04.491Z,31.93
2023-12-21T09:44:00.539Z,31.31
2023-12-21T09:45:03.608Z,35.75
2023-12-21T09:46:08.474Z,32.75
2023-12-21T09:47:12.042Z,38.56
2023-12-21T09:48:15.831Z,31.37
2023-12-21T09:49:19.746Z,31.47
2023-12-21T09:50:25.435Z,32.13
2023-12-21T09:51:28.436Z,35.06
2023-12-21T09:52:32.835Z,36.80
2023-12-21T09:53:38.564Z,34.60
2023-12-21T09:54:41.793Z,34.94
2023-12-21T09:55:45.072Z,30.75
2023-12-21T09:56:50.114Z,28.94
2023-12-21T09:57:53.400Z,35.63
2023-12-21T09:58:57.377Z,30.19
2023-12-21T10:00:01.652Z,31.19
2023-12-21T10:01:04.777Z,39.67
2023-12-21T10:02:07.731Z,35.50
2023-12-21T10:03:10.703Z,40.56
2023-12-21T10:04:13.736Z,34.00
2023-12-21T10:05:19.263Z,28.87
2023-12-21T10:06:22.953Z,33.31
2023-12-21T10:07:26.008Z,30.56
2023-12-21T10:08:29.032Z,33.75
2023-12-21T10:09:31.967Z,34.06
2023-12-21T10:10:34.973Z,35.80
2023-12-21T10:11:37.925Z,32.00
2023-12-21T10:12:41.782Z,26.12
2023-12-21T10:13:48.370Z,34.00
2023-12-21T10:15:00.558Z,30.06
2023-12-21T10:16:03.744Z,39.25
2023-12-21T10:17:06.859Z,33.69
2023-12-21T10:18:10.038Z,30.81
2023-12-21T10:19:15.452Z,32.44
2023-12-21T10:20:21.057Z,32.44
2023-12-21T10:21:24.166Z,29.37
2023-12-21T10:22:27.551Z,27.62
2023-12-21T10:23:30.767Z,35.19
2023-12-21T10:24:33.776Z,33.44
2023-12-21T10:25:36.956Z,32.81
2023-12-21T10:26:44.717Z,35.13
2023-12-21T10:27:56.399Z,36.44
2023-12-21T10:29:03.650Z,34.19
2023-12-21T10:30:07.564Z,35.60
2023-12-21T10:31:12.596Z,34.00
2023-12-21T10:32:17.233Z,35.67
2023-12-21T10:33:23.488Z,33.06
2023-12-21T10:34:26.846Z,35.50
2023-12-21T10:35:31.431Z,35.00
2023-12-21T10:38:28.630Z,29.19
2023-12-21T10:45:37.130Z,35.25
2023-12-21T10:46:43.699Z,29.81
2023-12-21T10:49:39.478Z,22.50
2023-12-21T10:50:54.336Z,31.81
2023-12-21T10:53:16.564Z,32.44
2023-12-21T10:54:28.111Z,32.63
2023-12-21T10:55:35.521Z,25.37
2023-12-21T10:56:43.414Z,37.60
2023-12-21T10:57:51.760Z,26.62
2023-12-21T10:58:56.522Z,28.06
2023-12-21T11:00:00.342Z,29.94
2023-12-21T11:01:17.126Z,29.63
2023-12-21T11:02:25.762Z,27.56
2023-12-21T11:03:33.341Z,22.87
2023-12-21T11:04:37.658Z,29.37
2023-12-21T11:05:42.539Z,28.12
2023-12-21T11:08:36.268Z,28.19
2023-12-21T11:09:43.856Z,28.94
2023-12-21T11:10:47.969Z,21.06
2023-12-21T11:11:51.105Z,26.06
2023-12-21T11:12:54.139Z,25.88
2023-12-21T11:15:25.512Z,29.19
2023-12-21T11:16:36.929Z,23.81
2023-12-21T11:17:41.965Z,26.31
2023-12-21T11:18:45.953Z,29.75
2023-12-21T11:19:54.399Z,26.81
2023-12-21T11:20:59.738Z,29.50
2023-12-21T11:22:03.399Z,28.93
2023-12-21T11:23:07.264Z,29.31
2023-12-21T11:24:11.995Z,25.31
2023-12-21T11:25:15.514Z,23.94
2023-12-21T11:26:22.459Z,26.31
2023-12-21T11:27:25.832Z,23.81
2023-12-21T11:28:30.655Z,26.56
2023-12-21T11:29:34.548Z,28.75
2023-12-21T11:30:44.464Z,28.38
2023-12-21T11:31:53.662Z,26.69
2023-12-21T11:32:52.853Z,21.94
2023-12-21T11:33:57.245Z,29.31
2023-12-21T11:35:01.651Z,29.31
2023-12-21T11:36:10.051Z,26.81
2023-12-21T11:37:18.516Z,29.00
2023-12-21T11:38:23.512Z,27.94
2023-12-21T11:39:29.741Z,29.37
2023-12-21T11:40:34.875Z,24.37
2023-12-21T11:41:38.247Z,20.06
2023-12-21T11:42:44.379Z,23.50
2023-12-21T11:44:03.389Z,22.44
2023-12-21T11:45:07.666Z,18.31
2023-12-21T11:47:36.181Z,21.12
2023-12-21T11:48:44.708Z,20.69
2023-12-21T11:49:48.145Z,20.31
2023-12-21T11:50:55.637Z,24.56
2023-12-21T11:51:58.816Z,24.25
2023-12-21T11:53:14.193Z,21.31
2023-12-21T11:54:20.558Z,18.37
2023-12-21T11:55:27.430Z,19.31
2023-12-21T11:56:37.405Z,17.31
2023-12-21T11:57:44.175Z,18.81
2023-12-21T11:58:49.916Z,15.94
2023-12-21T12:00:26.784Z,19.50
2023-12-21T12:01:31.457Z,21.37
2023-12-21T12:02:43.377Z,23.62
2023-12-21T12:03:48.387Z,26.25
2023-12-21T12:06:05.267Z,25.31
2023-12-21T12:07:08.531Z,22.87
2023-12-21T12:08:11.958Z,21.75
2023-12-21T12:09:18.061Z,20.62
2023-12-21T12:10:22.482Z,22.87
2023-12-21T12:11:26.964Z,21.12
2023-12-21T12:12:30.411Z,21.44
2023-12-21T12:13:33.366Z,22.33
2023-12-21T12:14:36.305Z,24.69
2023-12-21T12:15:39.262Z,25.37
2023-12-21T12:16:43.921Z,22.25
2023-12-21T12:17:47.076Z,19.62
2023-12-21T12:18:50.314Z,18.62
2023-12-21T12:19:54.760Z,24.31
2023-12-21T12:20:58.354Z,26.50
2023-12-21T12:22:02.842Z,16.37
2023-12-21T12:23:05.916Z,21.06
2023-12-21T12:24:08.801Z,17.25
2023-12-21T12:25:11.831Z,23.19
2023-12-21T12:26:16.518Z,16.87
2023-12-21T12:27:19.573Z,20.00
2023-12-21T12:28:22.638Z,19.62
2023-12-21T12:29:27.139Z,24.50
2023-12-21T12:30:35.199Z,21.69
2023-12-21T12:31:43.513Z,19.31
2023-12-21T12:41:22.309Z,24.44
2023-12-21T12:42:26.028Z,27.44
2023-12-21T12:43:32.046Z,27.69
2023-12-21T12:44:35.053Z,24.00
2023-12-21T12:45:37.931Z,21.56
2023-12-21T12:46:41.239Z,24.37
2023-12-21T12:47:44.851Z,20.25
2023-12-21T12:48:48.230Z,28.12
2023-12-21T12:49:55.167Z,21.94
2023-12-21T12:51:02.235Z,21.12
2023-12-21T12:52:08.409Z,20.31
2023-12-21T12:53:11.393Z,20.94
2023-12-21T12:54:17.026Z,23.12
2023-12-21T12:55:20.802Z,24.56
2023-12-21T12:56:24.105Z,19.06
2023-12-21T12:57:27.445Z,23.31
2023-12-21T12:58:31.626Z,20.88
2023-12-21T12:59:37.836Z,22.81
2023-12-21T13:00:44.759Z,22.37
2023-12-21T13:01:49.144Z,21.44
2023-12-21T13:02:55.427Z,18.00
2023-12-21T13:03:58.620Z,25.94
2023-12-21T13:05:04.458Z,21.94
2023-12-21T13:06:15.412Z,19.50
2023-12-21T13:07:20.672Z,20.31
2023-12-21T13:08:23.435Z,28.38
2023-12-21T13:09:26.379Z,23.50
2023-12-21T13:10:33.247Z,30.25
2023-12-21T13:11:36.133Z,27.80
2023-12-21T13:12:39.810Z,32.81
2023-12-21T13:13:42.810Z,33.75
2023-12-21T13:14:48.571Z,33.06
2023-12-21T13:15:54.451Z,28.12
2023-12-21T13:16:57.567Z,37.13
2023-12-21T13:18:02.416Z,33.88
2023-12-21T13:19:05.055Z,30.81
2023-12-21T13:20:09.286Z,37.31
2023-12-21T13:21:13.645Z,33.44
2023-12-21T13:22:16.548Z,30.50
2023-12-21T13:23:19.504Z,37.00
2023-12-21T13:24:22.548Z,33.88
2023-12-21T13:25:28.440Z,41.80
2023-12-21T13:26:32.747Z,42.27
2023-12-21T13:27:38.659Z,33.44
2023-12-21T13:28:44.245Z,31.81
2023-12-21T13:29:47.276Z,34.19
2023-12-21T13:30:50.421Z,29.31
2023-12-21T13:31:53.376Z,37.56
2023-12-21T13:32:57.812Z,33.88
2023-12-21T13:34:01.519Z,30.37
2023-12-21T13:35:07.103Z,39.38
2023-12-21T13:36:11.792Z,31.25
2023-12-21T13:37:16.977Z,36.00
2023-12-21T13:38:19.955Z,30.37
2023-12-21T13:39:22.841Z,33.13
2023-12-21T13:40:27.495Z,37.75
2023-12-21T13:41:30.555Z,29.63
2023-12-21T13:42:34.637Z,31.60
2023-12-21T13:43:38.037Z,33.81
2023-12-21T13:44:41.261Z,33.75
2023-12-21T13:45:45.878Z,36.13
2023-12-21T13:46:49.299Z,33.81
2023-12-21T13:47:52.313Z,40.94
2023-12-21T13:48:55.345Z,42.62
2023-12-21T13:49:58.264Z,42.31
2023-12-21T13:51:01.728Z,42.00
2023-12-21T13:52:04.800Z,39.38
2023-12-21T13:53:07.837Z,37.25
2023-12-21T13:54:11.771Z,36.38
2023-12-21T13:55:14.696Z,33.69
2023-12-21T13:56:18.157Z,33.25
2023-12-21T13:57:21.102Z,35.69
2023-12-21T13:58:24.031Z,34.44
2023-12-21T13:59:26.985Z,43.44
2023-12-21T14:00:31.495Z,37.25
2023-12-21T14:03:01.396Z,39.87
2023-12-21T14:04:04.305Z,35.69
2023-12-21T14:05:07.415Z,37.31
2023-12-21T14:06:10.712Z,41.00
2023-12-21T14:07:13.841Z,33.38
2023-12-21T14:08:16.778Z,30.13
2023-12-21T14:09:19.767Z,47.00
2023-12-21T14:10:23.498Z,33.69
2023-12-21T14:11:28.722Z,35.88
2023-12-21T14:12:32.430Z,35.56
2023-12-21T14:13:36.187Z,38.69
2023-12-21T14:14:39.121Z,37.75
2023-12-21T14:15:51.139Z,31.80
2023-12-21T14:16:55.776Z,32.27
2023-12-21T14:17:58.786Z,23.19
2023-12-21T14:19:01.847Z,32.56
2023-12-21T14:20:04.960Z,34.19
2023-12-21T14:21:07.811Z,30.88
2023-12-21T14:22:10.714Z,29.31
2023-12-21T14:23:13.693Z,34.44
2023-12-21T14:24:16.594Z,34.06
2023-12-21T14:25:19.634Z,36.27
2023-12-21T14:26:24.274Z,40.38
2023-12-21T14:27:27.170Z,37.00
2023-12-21T14:28:36.459Z,40.94
2023-12-21T14:29:34.508Z,40.00
2023-12-21T14:30:39.137Z,34.19
2023-12-21T14:31:42.235Z,31.69
2023-12-21T14:32:45.563Z,37.19
2023-12-21T14:33:49.085Z,29.81
2023-12-21T14:34:52.096Z,26.12
2023-12-21T14:35:55.020Z,27.00
2023-12-21T14:36:58.661Z,32.93
2023-12-21T14:38:01.720Z,26.69
2023-12-21T14:39:04.737Z,30.37
2023-12-21T14:40:08.866Z,33.13
2023-12-21T14:41:11.921Z,34.25
2023-12-21T14:42:14.945Z,28.31
2023-12-21T14:43:18.009Z,28.56
2023-12-21T14:44:20.981Z,34.93
2023-12-21T14:45:23.866Z,32.56
2023-12-21T14:46:27.545Z,28.31